Weather observations for the past three days for
Natchitoches, Natchitoches Regional Airport
| Date | Time (cdt) | Wind (kph) | Vis. (km) | Weather | Sky Cond. | Temperature (ºC) | Relative Humidity | Wind Chill (°C) | Heat Index (°C) | Pressure | Precipitation (cm) | ||||||
|---|---|---|---|---|---|---|---|---|---|---|---|---|---|---|---|---|---|
| Air | Dwpt | 6 hour | altimeter (cm) | sea level (mb) | 1 hr | 3 hr | 6 hr | ||||||||||
| Max. | Min. | ||||||||||||||||
| 02 | 19:55 | Calm | 16.09 | Fair | CLR | 16.9 | 10.9 | 68% | 76.43 | 0.0 | |||||||
| 02 | 19:35 | Calm | 16.09 | Fair | CLR | 19.7 | 9.4 | 52% | 76.4 | 0.0 | |||||||
| 02 | 19:15 | Calm | 16.09 | Fair | CLR | 20.8 | 7.6 | 43% | 76.4 | 0.0 | |||||||
| 02 | 18:55 | Calm | 16.09 | Fair | CLR | 21.6 | 7.5 | 23.5 | 21 | 40% | 76.4 | 0.0 | |||||
| 02 | 18:35 | N 11 | 16.09 | Fair | CLR | 22.1 | 6.5 | 37% | 76.38 | 0.0 | |||||||
| 02 | 18:15 | NW 13 | 16.09 | Fair | CLR | 22.5 | 6.8 | 36% | 76.38 | 0.0 | |||||||
| 02 | 17:55 | N 15 | 16.09 | Fair | CLR | 22.8 | 6.4 | 35% | 76.38 | 0.0 | |||||||
| 02 | 17:35 | N 15 | 16.09 | Fair | CLR | 22.3 | 5.7 | 34% | 76.38 | 0.0 | |||||||
| 02 | 17:15 | NW 19 G 28 | 16.09 | Fair | CLR | 23.1 | 6.4 | 34% | 76.35 | 0.0 | |||||||
| 02 | 16:55 | N 17 G 30 | 16.09 | Fair | CLR | 23.1 | 6 | 33% | 76.38 | 0.0 | |||||||
| 02 | 16:35 | N 13 | 16.09 | Fair | CLR | 23.2 | 6.4 | 34% | 76.38 | 0.0 | |||||||
| 02 | 16:15 | NE 13 | 16.09 | Fair | CLR | 23.5 | 6.6 | 34% | 76.38 | 0.0 | |||||||
| 02 | 15:55 | NE 11 | 16.09 | Fair | CLR | 23.1 | 5.9 | 33% | 76.4 | 0.0 | |||||||
| 02 | 15:35 | NE 13 | 16.09 | Fair | CLR | 22.8 | 5.2 | 32% | 76.43 | 0.0 | |||||||
| 02 | 15:15 | Calm | 16.09 | Fair | CLR | 23 | 6.5 | 35% | 76.43 | 0.0 | |||||||
| 02 | 14:55 | N 15 | 16.09 | Fair | CLR | 22.6 | 6.1 | 34% | 76.45 | 0.0 | |||||||
| 02 | 14:35 | N 17 | 16.09 | Fair | CLR | 22.1 | 5.7 | 35% | 76.48 | 0.0 | |||||||
| 02 | 14:15 | N 13 | 16.09 | Fair | CLR | 22.3 | 6.3 | 36% | 76.48 | 0.0 | |||||||
| 02 | 13:55 | N 11 | 16.09 | Fair | CLR | 22 | 6.3 | 36% | 76.5 | 0.0 | |||||||
| 02 | 13:35 | Calm | 16.09 | Fair | CLR | 21.5 | 5.6 | 36% | 76.5 | 0.0 | |||||||
| 02 | 13:15 | NE 13 | 16.09 | Fair | CLR | 21.5 | 5.5 | 35% | 76.53 | 0.0 | |||||||
| 02 | 12:55 | NE 19 | 16.09 | Fair | CLR | 21.2 | 4.8 | 21.4 | 11.6 | 34% | 76.56 | 0.0 | |||||
| 02 | 12:35 | NE 9 | 16.09 | Fair | CLR | 21 | 5.7 | 37% | 76.56 | 0.0 | |||||||
| 02 | 12:15 | NE 11 | 16.09 | Fair | CLR | 20.5 | 5.3 | 37% | 76.58 | 0.0 | |||||||
| 02 | 11:55 | N 17 | 16.09 | Fair | CLR | 20.5 | 5.7 | 38% | 76.58 | 0.0 | |||||||
| 02 | 11:35 | N 15 | 16.09 | Fair | CLR | 19.9 | 6.4 | 42% | 76.58 | 0.0 | |||||||
| 02 | 11:15 | N 17 | 16.09 | Fair | CLR | 19.6 | 6.2 | 42% | 76.58 | 0.0 | |||||||
| 02 | 10:55 | N 11 | 16.09 | Fair | CLR | 19.3 | 7.5 | 47% | 76.58 | 0.0 | |||||||
| 02 | 10:35 | NE 15 | 16.09 | Fair | CLR | 18.8 | 7.8 | 49% | 76.58 | 0.0 | |||||||
| 02 | 10:15 | N 15 | 16.09 | Fair | CLR | 17.8 | 8.6 | 55% | 76.56 | 0.0 | |||||||
| 02 | 09:55 | Calm | 16.09 | Fair | CLR | 17.4 | 9.7 | 61% | 76.56 | 0.0 | |||||||
| 02 | 09:35 | Calm | 16.09 | Fair | CLR | 16.9 | 10 | 64% | 76.56 | 0.0 | |||||||
| 02 | 09:15 | N 15 | 16.09 | Fair | CLR | 16.2 | 10.2 | 68% | 76.53 | 0.0 | |||||||
| 02 | 08:55 | N 13 | 16.09 | Fair | CLR | 15.4 | 10.2 | 71% | 76.5 | 0.0 | |||||||
| 02 | 08:35 | Calm | 16.09 | Fair | CLR | 14.6 | 10.5 | 77% | 76.48 | 0.0 | |||||||
| 02 | 08:15 | Calm | 16.09 | Fair | CLR | 13.9 | 10.9 | 82% | 76.45 | 0.0 | |||||||
| 02 | 07:55 | Calm | 16.09 | Fair | CLR | 12.5 | 11.9 | 96% | 76.43 | 0.0 | |||||||
| 02 | 07:35 | Calm | 16.09 | Fair | CLR | 12.1 | 12.1 | 100% | 76.4 | 0.0 | |||||||
| 02 | 07:15 | Calm | 16.09 | Fair | CLR | 11.8 | 11.8 | 100% | 76.4 | 0.0 | |||||||
| 02 | 06:55 | Calm | 16.09 | Fair | CLR | 11.5 | 11.5 | 12.6 | 11.2 | 100% | 76.38 | 0.0 | |||||
| 02 | 06:35 | Calm | 16.09 | Fair | CLR | 11.5 | 11.5 | 100% | 76.35 | 0.0 | |||||||
| 02 | 06:15 | Calm | 16.09 | Fair | CLR | 11.2 | 11.2 | 100% | 76.35 | 0.0 | |||||||
| 02 | 05:55 | Calm | 16.09 | Fair | CLR | 11.5 | 11.5 | 100% | 76.3 | 0.0 | |||||||
| 02 | 05:35 | Calm | 16.09 | Partly Cloudy | SCT110 | 11.3 | 11.3 | 100% | 76.28 | 0.0 | |||||||
| 02 | 05:15 | Calm | 16.09 | Partly Cloudy | SCT120 | 11.6 | 11.6 | 100% | 76.28 | 0.0 | |||||||
| 02 | 04:55 | Calm | 16.09 | Fair | CLR | 11.5 | 11.5 | 100% | 76.28 | 0.0 | |||||||
| 02 | 04:35 | Calm | 16.09 | Fair | CLR | 11.9 | 11.9 | 100% | 76.28 | 0.0 | |||||||
| 02 | 04:15 | Calm | 16.09 | Partly Cloudy | SCT120 | 12 | 12 | 100% | 76.28 | 0.0 | |||||||
| 02 | 03:55 | Calm | 16.09 | Mostly Cloudy | BKN120 | 12.1 | 12.1 | 100% | 76.25 | 0.0 | |||||||
| 02 | 03:35 | Calm | 16.09 | Partly Cloudy | SCT110 | 12.3 | 12.3 | 100% | 76.25 | 0.0 | |||||||
| 02 | 03:15 | N 6 | 16.09 | Overcast | SCT085 OVC110 | 12.6 | 12.6 | 100% | 76.25 | 0.0 | |||||||
| 02 | 02:55 | Calm | 16.09 | Overcast | BKN075 OVC110 | 12.5 | 12.5 | 100% | 76.25 | 0.0 | |||||||
| 02 | 02:35 | Calm | 16.09 | Overcast | BKN075 OVC100 | 12.5 | 12.5 | 100% | 76.23 | 0.0 | |||||||
| 02 | 02:15 | Calm | 16.09 | Overcast | SCT004 BKN075 OVC100 | 12.5 | 12.5 | 100% | 76.25 | 0.0 | |||||||
| 02 | 01:55 | Calm | 16.09 | Overcast | BKN004 OVC065 | 12.3 | 12.3 | 100% | 76.25 | 0.0 | |||||||
| 02 | 01:35 | Calm | 16.09 | Overcast | BKN004 BKN065 OVC095 | 12.3 | 12.3 | 100% | 76.25 | 0.0 | |||||||
| 02 | 01:15 | Calm | 16.09 | Overcast | BKN004 OVC065 | 12.3 | 12.3 | 100% | 76.25 | 0.0 | |||||||
| 02 | 00:55 | Calm | 16.09 | Overcast | SCT004 OVC065 | 12.3 | 12.3 | 12.6 | 11.2 | 100% | 76.28 | 0.0 | |||||
| 02 | 00:35 | Calm | 16.09 | Overcast | BKN004 OVC065 | 12.3 | 12.3 | 100% | 76.28 | 0.0 | |||||||
| 02 | 00:15 | Calm | 16.09 | Overcast | BKN004 OVC065 | 12.5 | 12.5 | 100% | 76.3 | 0.0 | |||||||
| 01 | 23:55 | Calm | 16.09 | Overcast | OVC055 | 12.4 | 12.4 | 100% | 76.3 | 0.0 | |||||||
| 01 | 23:35 | Calm | 16.09 | Overcast | OVC055 | 12.4 | 12.4 | 100% | 76.28 | 0.0 | |||||||
| 01 | 23:15 | Calm | 16.09 | Light Drizzle | SCT006 SCT013 OVC055 | 12.6 | 12.6 | 100% | 76.28 | 0.0 | |||||||
| 01 | 22:55 | Calm | 16.09 | Overcast | OVC006 | 12.5 | 12.5 | 100% | 76.33 | 0.0 | |||||||
| 01 | 22:35 | Calm | 16.09 | Light Drizzle | OVC006 | 12.5 | 12.5 | 100% | 76.3 | 0.0 | |||||||
| 01 | 22:15 | Calm | 16.09 | Light Rain | SCT008 BKN012 OVC044 | 12.2 | 12.2 | 100% | 76.28 | 0.0 | |||||||
| 01 | 21:55 | Calm | 16.09 | Light Rain | SCT014 OVC042 | 12 | 12 | 100% | 76.28 | 0.0 | |||||||
| 01 | 21:35 | Calm | 16.09 | Rain | SCT014 OVC040 | 11.8 | 11.8 | 100% | 76.3 | 0.0 | |||||||
| 01 | 21:15 | Calm | 16.09 | Light Drizzle | SCT014 SCT020 OVC040 | 12 | 12 | 100% | 76.23 | 0.0 | |||||||
| 01 | 20:55 | Calm | 16.09 | Light Rain | BKN014 OVC020 | 11.7 | 11.7 | 100% | 76.2 | 0.0 | |||||||
| 01 | 20:35 | Calm | 16.09 | Overcast | BKN016 OVC024 | 11.5 | 11.5 | 100% | 76.2 | 0.0 | |||||||
| 01 | 20:15 | Calm | 16.09 | Drizzle | SCT012 BKN025 OVC035 | 11.5 | 11.5 | 100% | 76.1 | 0.0 | |||||||
| 01 | 19:55 | Calm | 16.09 | Drizzle | SCT035 BKN047 BKN070 | 11.4 | 11.4 | 100% | 76.1 | 0.0 | |||||||
| 01 | 19:35 | E 6 | 16.09 | Light Rain | SCT033 BKN049 OVC090 | 11.2 | 11.2 | 100% | 76.1 | 0.0 | |||||||
| 01 | 19:15 | E 17 G 30 | 8.05 | Light Rain | SCT040 SCT070 OVC080 | 11.3 | 11.3 | 100% | 76.15 | 0.0 | |||||||
| 01 | 18:55 | E 20 G 31 | 8.05 | Rain | SCT016 BKN027 OVC075 | 12 | 12 | 12.8 | 11.9 | 100% | 76.15 | 0.0 | |||||
| 01 | 18:35 | Calm | 11.27 | Light Rain | SCT006 BKN017 OVC025 | 12.5 | 12.5 | 100% | 76.15 | 0.0 | |||||||
| 01 | 18:15 | Calm | 8.05 | Light Rain | SCT006 OVC014 | 12.5 | 12.5 | 100% | 76.15 | 0.0 | |||||||
| 01 | 17:55 | Calm | 8.05 | Rain | OVC019 | 12.5 | 12.5 | 100% | 76.12 | 0.0 | |||||||
| 01 | 17:35 | Calm | 11.27 | Light Rain | OVC018 | 12.5 | 12.5 | 100% | 76.15 | 0.0 | |||||||
| 01 | 17:15 | Calm | 11.27 | Drizzle | OVC019 | 12.5 | 12.5 | 100% | 76.1 | 0.0 | |||||||
| 01 | 16:55 | Calm | 11.27 | Rain | OVC017 | 12.7 | 11.8 | 94% | 76.1 | 0.0 | |||||||
| 01 | 16:35 | Calm | 16.09 | Drizzle | OVC019 | 12.3 | 11.9 | 97% | 76.07 | 0.0 | |||||||
| 01 | 16:15 | NE 17 | 16.09 | Overcast | OVC017 | 12.5 | 11.6 | 94% | 75.97 | 0.0 | |||||||
| 01 | 15:55 | E 17 G 31 | 16.09 | Light Rain | BKN015 OVC020 | 12.7 | 12.2 | 97% | 75.92 | 0.0 | |||||||
| 01 | 15:35 | E 20 G 33 | 16.09 | Light Drizzle | OVC013 | 12.7 | 12.5 | 99% | 75.9 | 0.0 | |||||||
| 01 | 15:15 | E 22 G 35 | 16.09 | Overcast | OVC011 | 12.5 | 12.5 | 100% | 75.92 | 0.0 | |||||||
| 01 | 14:55 | NE 22 G 31 | 16.09 | Overcast | BKN011 OVC017 | 12.5 | 12.5 | 100% | 75.97 | 0.0 | |||||||
| 01 | 14:35 | NE 22 | 16.09 | Light Drizzle | BKN013 OVC050 | 12.6 | 12.6 | 100% | 76.05 | 0.0 | |||||||
| 01 | 14:15 | E 19 | 16.09 | Light Rain | SCT014 BKN030 OVC050 | 12.3 | 12.3 | 100% | 76.15 | 0.0 | |||||||
| 01 | 13:55 | E 19 G 26 | 16.09 | Drizzle | SCT011 SCT016 OVC029 | 12.2 | 12.2 | 100% | 76.17 | 0.0 | |||||||
| 01 | 13:35 | NE 15 G 26 | 16.09 | Drizzle | SCT014 SCT024 OVC029 | 12 | 12 | 100% | 76.2 | 0.0 | |||||||
| 01 | 13:15 | NE 20 G 33 | 16.09 | Drizzle | SCT008 OVC014 | 12 | 12 | 100% | 76.23 | 0.0 | |||||||
| 01 | 12:55 | NE 15 G 30 | 16.09 | Light Rain | BKN010 OVC018 | 12.4 | 12.4 | 14.5 | 12.4 | 100% | 76.23 | 0.0 | |||||
| 01 | 12:35 | NE 11 G 26 | 11.27 | Light Rain | BKN008 OVC015 | 12.5 | 12.5 | 100% | 76.23 | 0.0 | |||||||
| 01 | 12:15 | NE 11 | 11.27 | Rain | BKN008 BKN011 OVC018 | 12.6 | 12.6 | 100% | 76.23 | 0.0 | |||||||
| 01 | 11:55 | NE 13 | 11.27 | Rain | BKN008 OVC011 | 12.8 | 12.8 | 100% | 76.25 | 0.0 | |||||||
| 01 | 11:35 | NE 13 | 8.05 | Rain | OVC008 | 12.7 | 12.7 | 100% | 76.28 | 0.0 | |||||||
| 01 | 11:15 | Calm | 11.27 | Rain | OVC008 | 13 | 13 | 100% | 76.28 | 0.0 | |||||||
| 01 | 10:55 | N 6 | 11.27 | Rain | OVC008 | 13 | 13 | 100% | 76.23 | 0.0 | |||||||
| 01 | 10:35 | NE 7 G 26 | 11.27 | Rain | BKN009 BKN014 OVC075 | 13.1 | 13.1 | 100% | 76.2 | 0.0 | |||||||
| 01 | 10:15 | NE 13 | 8.05 | Rain | BKN009 OVC014 | 13 | 13 | 100% | 76.23 | 0.0 | |||||||
| 01 | 09:55 | NE 11 | 8.05 | Rain | OVC009 | 13.1 | 13.1 | 100% | 76.2 | 0.0 | |||||||
| 01 | 09:35 | NE 13 | 11.27 | Light Rain | OVC008 | 13.1 | 13.1 | 100% | 76.23 | 0.0 | |||||||
| 01 | 09:15 | NE 11 | 8.05 | Rain | BKN008 OVC029 | 13.3 | 13.3 | 100% | 76.2 | 0.0 | |||||||
| 01 | 08:55 | NE 13 | 8.05 | Rain | OVC031 | 13.5 | 13.5 | 100% | 76.2 | 0.0 | |||||||
| 01 | 08:35 | Calm | 8.05 | Rain | SCT009 OVC027 | 13.6 | 13.6 | 100% | 76.17 | 0.0 | |||||||
| 01 | 08:15 | Calm | 11.27 | Rain | SCT009 OVC025 | 13.7 | 13.7 | 100% | 76.2 | 0.0 | |||||||
| 01 | 07:55 | Calm | 8.05 | Light Rain | SCT009 OVC025 | 14 | 14 | 100% | 76.2 | 0.0 | |||||||
| 01 | 07:35 | Calm | 11.27 | Light Rain | OVC025 | 14.4 | 13.8 | 96% | 76.17 | 0.0 | |||||||
| 01 | 07:15 | Calm | 16.09 | Rain | OVC025 | 14.5 | 13.5 | 94% | 76.17 | 0.0 | |||||||
| 01 | 06:55 | Calm | 16.09 | Drizzle | OVC025 | 14.5 | 13.9 | 14.8 | 14.3 | 96% | 76.12 | 0.0 | |||||
| 01 | 06:35 | Calm | 16.09 | Light Drizzle | OVC023 | 14.5 | 14 | 97% | 76.1 | 0.0 | |||||||
| 01 | 06:15 | Calm | 16.09 | Overcast | OVC023 | 14.6 | 14.1 | 97% | 76.1 | 0.0 | |||||||
| 01 | 05:55 | Calm | 16.09 | Overcast | OVC021 | 14.5 | 14 | 97% | 76.07 | 0.0 | |||||||
| 01 | 05:35 | Calm | 16.09 | Overcast | OVC021 | 14.6 | 13.9 | 96% | 76.05 | 0.0 | |||||||
| 01 | 05:15 | N 11 | 16.09 | Overcast | OVC021 | 14.7 | 13.8 | 94% | 76.02 | 0.0 | |||||||
| 01 | 04:55 | Calm | 16.09 | Overcast | OVC021 | 14.6 | 13.9 | 96% | 76.02 | 0.0 | |||||||
| 01 | 04:35 | Calm | 16.09 | Overcast | OVC021 | 14.7 | 14.1 | 96% | 76 | 0.0 | |||||||
| 01 | 04:15 | Calm | 16.09 | Overcast | OVC021 | 14.8 | 14.5 | 98% | 76.05 | 0.0 | |||||||
| 01 | 03:55 | Calm | 16.09 | Overcast | OVC021 | 14.6 | 14.5 | 99% | 76.02 | 0.0 | |||||||
| 01 | 03:35 | Calm | 16.09 | Overcast | OVC021 | 14.5 | 14.5 | 100% | 76.05 | 0.0 | |||||||
| 01 | 03:15 | Calm | 16.09 | Overcast | OVC021 | 14.5 | 14.5 | 100% | 76.02 | 0.0 | |||||||
| 01 | 02:55 | Calm | 16.09 | Overcast | OVC021 | 14.4 | 14.4 | 100% | 76.05 | 0.0 | |||||||
| 01 | 02:35 | Calm | 16.09 | Overcast | OVC021 | 14.5 | 14.5 | 100% | 76.05 | 0.0 | |||||||
| 01 | 02:15 | Calm | 16.09 | Overcast | OVC021 | 14.5 | 14.5 | 100% | 76.05 | 0.0 | |||||||
| 01 | 01:55 | Calm | 16.09 | Drizzle | OVC023 | 14.6 | 14.6 | 100% | 76.05 | 0.0 | |||||||
| 01 | 01:35 | Calm | 16.09 | Light Rain | BKN018 OVC024 | 14.8 | 14.8 | 100% | 76.12 | 0.0 | |||||||
| 01 | 01:15 | Calm | 16.09 | Overcast | SCT011 OVC016 | 14.7 | 14.7 | 100% | 76.1 | 0.0 | |||||||
| 01 | 00:55 | Calm | 16.09 | Overcast | BKN009 OVC016 | 14.9 | 14.9 | 16.5 | 14.8 | 100% | 76.05 | 0.0 | |||||
| 01 | 00:35 | Calm | 16.09 | Overcast | BKN009 OVC014 | 15 | 15 | 100% | 76.1 | 0.0 | |||||||
| 01 | 00:15 | Calm | 16.09 | Light Drizzle | SCT007 OVC014 | 15 | 15 | 100% | 76.07 | 0.0 | |||||||
| 30 | 23:55 | Calm | 16.09 | Light Drizzle | OVC014 | 15.1 | 15.1 | 100% | 76.05 | 0.0 | |||||||
| 30 | 23:35 | Calm | 16.09 | Drizzle | OVC012 | 15.1 | 15.1 | 100% | 76.15 | 0.0 | |||||||
| 30 | 23:15 | Calm | 16.09 | Light Drizzle | OVC010 | 15.2 | 15.2 | 100% | 76.2 | 0.0 | |||||||
| 30 | 22:55 | Calm | 16.09 | Light Drizzle | OVC010 | 15.5 | 15.5 | 100% | 76.12 | 0.0 | |||||||
| 30 | 22:35 | Calm | 16.09 | Rain | OVC008 | 15.5 | 15.5 | 100% | 76.1 | 0.0 | |||||||
| 30 | 22:15 | Calm | 11.27 | Light Rain | BKN006 OVC009 | 15.8 | 15.8 | 100% | 76.07 | 0.0 | |||||||
| 30 | 21:55 | Calm | 6.44 | Rain | BKN009 BKN035 OVC075 | 15.8 | 15.8 | 100% | 76.07 | 0.0 | |||||||
| 30 | 21:35 | Calm | 11.27 | Light Rain | BKN013 BKN029 OVC090 | 15.8 | 15.8 | 100% | 76.05 | 0.0 | |||||||
| 30 | 21:15 | Calm | 16.09 | Light Rain | BKN013 BKN028 OVC039 | 16 | 16 | 100% | 76.07 | 0.0 | |||||||
| 30 | 20:55 | Calm | 11.27 | Light Rain | BKN013 BKN030 OVC095 | 16.2 | 16.2 | 100% | 76.07 | 0.0 | |||||||
| 30 | 20:35 | Calm | 16.09 | Mostly Cloudy | SCT013 SCT029 BKN120 | 16.2 | 16 | 99% | 76.02 | 0.0 | |||||||
| 30 | 20:15 | Calm | 16.09 | Fair | CLR | 16.2 | 16 | 99% | 75.92 | 0.0 | |||||||
| 30 | 19:55 | Calm | 16.09 | Partly Cloudy | SCT110 | 16.1 | 16 | 99% | 75.9 | 0.0 | |||||||
| 30 | 19:35 | Calm | 16.09 | Drizzle | SCT080 OVC110 | 16.2 | 15.8 | 98% | 75.92 | 0.0 | |||||||
| 30 | 19:15 | Calm | 16.09 | Mostly Cloudy | BKN110 | 16.5 | 15.6 | 94% | 75.95 | 0.0 | |||||||
| 30 | 18:55 | Calm | 16.09 | Partly Cloudy | SCT120 | 16.3 | 15.7 | 17.8 | 16.1 | 96% | 75.92 | 0.0 | |||||
| 30 | 18:35 | Calm | 16.09 | Overcast | SCT012 OVC120 | 16.2 | 15.8 | 98% | 75.9 | 0.0 | |||||||
| 30 | 18:15 | Calm | 16.09 | Mostly Cloudy | SCT012 SCT033 BKN110 | 16.2 | 16.2 | 100% | 75.95 | 0.0 | |||||||
| 30 | 17:55 | Calm | 16.09 | Light Drizzle | SCT014 BKN033 OVC110 | 16.2 | 16.2 | 100% | 75.95 | 0.0 | |||||||
| 30 | 17:35 | Calm | 11.27 | Drizzle | SCT014 BKN033 OVC110 | 16.3 | 15.9 | 98% | 76.02 | 0.0 | |||||||
| 30 | 17:15 | Calm | 16.09 | Light Drizzle | BKN012 BKN022 OVC110 | 16.3 | 16 | 98% | 76 | 0.0 | |||||||
| 30 | 16:55 | NE 11 | 16.09 | Overcast | BKN010 OVC021 | 16.5 | 16.5 | 100% | 75.95 | 0.0 | |||||||
| 30 | 16:35 | N 13 | 16.09 | Overcast | BKN008 BKN011 OVC021 | 16.6 | 16.6 | 100% | 75.97 | 0.0 | |||||||
| 30 | 16:15 | N 13 | 16.09 | Overcast | BKN008 BKN011 OVC015 | 16.5 | 16.5 | 100% | 76 | 0.0 | |||||||
| 30 | 15:55 | NE 13 | 16.09 | Drizzle | BKN006 OVC013 | 16.7 | 16.7 | 100% | 75.97 | 0.0 | |||||||
| 30 | 15:35 | N 13 | 16.09 | Light Rain | BKN009 OVC020 | 17.1 | 17.1 | 100% | 76.02 | 0.0 | |||||||
| 30 | 15:15 | Calm | 8.05 | Rain | OVC013 | 17.1 | 17.1 | 100% | 76.05 | 0.0 | |||||||
| 30 | 14:55 | Calm | 4.83 | Rain | OVC013 | 17.1 | 17 | 99% | 76.07 | 0.0 | |||||||
| 30 | 14:35 | Calm | 11.27 | Thunderstorm Light Drizzle | OVC013 | 17.4 | 16.9 | 97% | 76.05 | 0.0 | |||||||
| 30 | 14:15 | NE 11 | 16.09 | Thunderstorm Light Rain in Vicinity | OVC011 | 17.5 | 16.8 | 96% | 76.02 | 0.0 | |||||||
| 30 | 13:55 | Calm | 16.09 | Overcast | OVC011 | 17.6 | 16.4 | 93% | 76.02 | 0.0 | |||||||
| 30 | 13:35 | NE 11 | 16.09 | Thunderstorm in Vicinity | OVC011 | 17.5 | 16.5 | 94% | 76 | 0.0 | |||||||
| 30 | 13:15 | NE 17 | 16.09 | Overcast | OVC011 | 17.6 | 16.5 | 93% | 75.97 | 0.0 | |||||||
| 30 | 12:55 | E 13 G 28 | 16.09 | Overcast | OVC011 | 17.9 | 16.5 | 18 | 16.3 | 92% | 76 | 0.0 | |||||
| 30 | 12:35 | E 19 G 26 | 16.09 | Overcast | OVC011 | 17.5 | 16.4 | 93% | 76.02 | 0.0 | |||||||
| 30 | 12:15 | E 11 | 16.09 | Overcast | OVC011 | 17.6 | 16.5 | 93% | 76.05 | 0.0 | |||||||
| 30 | 11:55 | E 13 | 16.09 | Overcast | OVC011 | 17.3 | 16.5 | 95% | 76.07 | 0.0 | |||||||
| 30 | 11:35 | E 19 G 28 | 16.09 | Overcast | OVC011 | 16.9 | 16.5 | 98% | 76.07 | 0.0 | |||||||
| 30 | 11:15 | Calm | 16.09 | Overcast | BKN011 OVC016 | 16.8 | 16.8 | 100% | 76.07 | 0.0 | |||||||
| 30 | 10:55 | E 13 G 26 | 16.09 | Overcast | OVC010 | 16.7 | 16.7 | 100% | 76.07 | 0.0 | |||||||
| 30 | 10:35 | NE 13 | 16.09 | Overcast | OVC010 | 16.7 | 16.7 | 100% | 76.07 | 0.0 | |||||||
| 30 | 10:15 | E 13 | 16.09 | Overcast | OVC008 | 16.8 | 16.8 | 100% | 76.05 | 0.0 | |||||||
| 30 | 09:55 | Calm | 16.09 | Overcast | OVC008 | 16.7 | 16.7 | 100% | 76.05 | 0.0 | |||||||
| 30 | 09:35 | Calm | 11.27 | Overcast | OVC008 | 16.5 | 16.5 | 100% | 76.07 | 0.0 | |||||||
| 30 | 09:15 | Calm | 8.05 | Fog/Mist | OVC008 | 16.5 | 16.5 | 100% | 76.05 | 0.0 | |||||||
| 30 | 08:55 | E 6 | 16.09 | Overcast | OVC008 | 16.3 | 16.3 | 100% | 76.05 | 0.0 | |||||||
| 30 | 08:35 | Calm | 16.09 | Overcast | OVC006 | 16.5 | 16.5 | 100% | 76.02 | 0.0 | |||||||
| 30 | 08:15 | NE 15 | 11.27 | Rain | BKN006 OVC013 | 16.6 | 16.6 | 100% | 76.02 | 0.0 | |||||||
| 30 | 07:55 | E 15 | 11.27 | Light Rain | BKN006 OVC013 | 16.7 | 16.7 | 100% | 76 | 0.0 | |||||||
| 30 | 07:35 | NE 13 | 16.09 | Overcast | OVC006 | 17 | 17 | 100% | 76 | 0.0 | |||||||
| 30 | 07:15 | NE 15 | 16.09 | Overcast | OVC006 | 17 | 17 | 100% | 75.97 | 0.0 | |||||||
| 30 | 06:55 | Calm | 16.09 | Overcast | OVC006 | 17 | 17 | 19.2 | 17 | 100% | 75.95 | 0.0 | |||||
| 30 | 06:35 | Calm | 8.05 | Thunderstorm Light Rain in Vicinity | BKN006 BKN010 OVC041 | 17 | 17 | 100% | 75.95 | 0.0 | |||||||
| 30 | 06:15 | Calm | 8.05 | Thunderstorm Rain | BKN006 BKN013 OVC041 | 17.1 | 17.1 | 100% | 75.92 | 0.0 | |||||||
| 30 | 05:55 | Calm | 4.02 | Thunderstorm Heavy Rain | OVC004 | 17.2 | 17.2 | 100% | 75.97 | 0.0 | |||||||
| 30 | 05:35 | Calm | 11.27 | Thunderstorm Rain in Vicinity | OVC006 | 17.5 | 17.5 | 100% | 75.9 | 0.0 | |||||||
| 30 | 05:15 | NE 17 | 8.05 | Thunderstorm in Vicinity Fog/Mist | OVC004 | 17.6 | 17.6 | 100% | 75.92 | 0.0 | |||||||
| 30 | 04:55 | NE 7 | 8.05 | Fog/Mist | OVC004 | 17.7 | 17.7 | 100% | 75.92 | 0.0 | |||||||
| 30 | 04:35 | NE 13 | 8.05 | Light Drizzle | OVC004 | 17.8 | 17.8 | 100% | 75.92 | 0.0 | |||||||
| 30 | 04:15 | N 9 | 4.83 | Thunderstorm Drizzle | OVC004 | 18.2 | 18.2 | 100% | 75.92 | 0.0 | |||||||
| 30 | 03:55 | N 13 | 4.02 | Heavy Drizzle | OVC004 | 18.5 | 18.5 | 100% | 75.9 | 0.0 | |||||||
| 30 | 03:35 | Calm | 8.05 | Fog/Mist | OVC004 | 19 | 19 | 100% | 75.92 | 0.0 | |||||||
| 30 | 03:15 | Calm | 11.27 | Overcast | OVC004 | 19.1 | 19.1 | 100% | 75.92 | 0.0 | |||||||
| 30 | 02:55 | Calm | 11.27 | Overcast | OVC006 | 19.1 | 19.1 | 100% | 75.92 | 0.0 | |||||||
| 30 | 02:35 | Calm | 11.27 | Overcast | BKN006 BKN011 OVC016 | 19 | 19 | 100% | 75.92 | 0.0 | |||||||
| 30 | 02:15 | Calm | 16.09 | Overcast | SCT006 OVC018 | 19.2 | 19.2 | 100% | 75.97 | 0.0 | |||||||
| 30 | 01:55 | Calm | 16.09 | Overcast | OVC018 | 19.1 | 19.1 | 100% | 76 | 0.0 | |||||||
| 30 | 01:35 | Calm | 16.09 | Overcast | OVC018 | 19.1 | 19.1 | 100% | 76 | 0.0 | |||||||
| 30 | 01:15 | Calm | 16.09 | Overcast | OVC018 | 19.1 | 19.1 | 100% | 76.02 | 0.0 | |||||||
| 30 | 00:55 | Calm | 16.09 | Overcast | OVC020 | 19.1 | 19.1 | 19.5 | 19 | 100% | 75.97 | 0.0 | |||||
| 30 | 00:35 | Calm | 16.09 | Mostly Cloudy | SCT006 SCT020 BKN029 | 19.1 | 19.1 | 100% | 75.97 | 0.0 | |||||||
| 30 | 00:15 | NE 11 | 16.09 | Mostly Cloudy | SCT006 SCT027 BKN032 | 19 | 19 | 100% | 75.95 | 0.0 | |||||||
| 29 | 23:55 | N 6 | 16.09 | Thunderstorm Light Rain in Vicinity | SCT008 SCT026 BKN048 | 19 | 19 | 100% | 75.97 | 0.0 | |||||||
| 29 | 23:35 | E 15 | 16.09 | Thunderstorm Light Rain in Vicinity | SCT046 BKN060 OVC100 | 19.1 | 19.1 | 100% | 75.95 | 0.0 | |||||||
| 29 | 23:15 | SE 7 | 16.09 | Thunderstorm Light Rain | SCT032 SCT060 BKN100 | 19.1 | 19.1 | 100% | 75.97 | 0.0 | |||||||
| 29 | 22:55 | NE 9 | 16.09 | Thunderstorm Rain | SCT015 BKN075 OVC100 | 19.4 | 19.4 | 100% | 76.05 | 0.0 | |||||||
| 29 | 22:35 | Calm | 16.09 | Thunderstorm Light Rain in Vicinity | BKN015 BKN033 OVC055 | 19.5 | 19.5 | 100% | 76.1 | 0.0 | |||||||
| 29 | 22:15 | Calm | 16.09 | Overcast | OVC011 | 19.5 | 19.5 | 100% | 76.07 | 0.0 | |||||||
| 29 | 21:55 | Calm | 16.09 | Overcast | OVC009 | 19.5 | 19.5 | 100% | 76.02 | 0.0 | |||||||
| 29 | 21:35 | Calm | 16.09 | Overcast | BKN009 OVC055 | 19.5 | 19.5 | 100% | 75.97 | 0.0 | |||||||
| 29 | 21:15 | Calm | 16.09 | Mostly Cloudy | BKN055 | 19.2 | 19.2 | 100% | 75.95 | 0.0 | |||||||
| 29 | 20:55 | SE 13 | 16.09 | Fair | CLR | 19.2 | 19.2 | 100% | 75.87 | 0.0 | |||||||
| 29 | 20:35 | Calm | 16.09 | Fair | CLR | 19.3 | 19.3 | 100% | 75.87 | 0.0 | |||||||
| 29 | 20:15 | Calm | 16.09 | Fair | CLR | 19.5 | 19.5 | 100% | 75.9 | 0.0 | |||||||
| Date | Time (cdt) | Wind (kph) | Vis. (km) | Weather | Sky Cond. | Air | Dwpt | Max. | Min. | Relative Humidity | Wind Chill (°C) | Heat Index (°C) | altimeter (cm) | sea level (mb) | 1 hr | 3 hr | 6 hr |
| 6 hour | |||||||||||||||||
| Temperature (ºC) | Pressure | Precipitation (cm) | |||||||||||||||